Scotland, Missouri
Current Conditions -  °F | °C
As of 2:53 AM on Sunday 23 Nov 2014 (Local Time) from KJLN Reporting Station
Overcast Overcast  
Wind Chill: 58°   Ceiling: 1900
Heat Index: 58°   Visibility: 10mi
Dew Point: 53°   Wind: 9mph
Humidity: 84%   Direction: 150°SSE
Pressure: 29.62"   Gusts: NA
Location:  37.1542°N, 94.2882°W
Report Text: KJLN 230853Z AUTO 15008KT 10SM OVC019 14/12 A2962 RMK AO2 SLP027 T01440117 58027
Loading
Personal Weather Stations






























Interactive Weather Map New forecast layout! Learn more

10-Day Weather Forecast

Advertisements
Track Severe Weather on mobile